• Join FlightAware (Why Join?)
  • Login
  • US Flag GB Flag 
06:59 EDT


 

Airport Tracker/Info


-or-


 

Live Flight TrackerFlight Track Log ✈ FLG3729 ✈ 02-May-2013 ✈ KALB - KDTW

Flight Track Log - Related Links

Times and Time Zones

All times are in EDT time to prevent confusion due to time zone crossing. See the FLG3729 flight status page for this flight to view local times or setup timezone preferences in your user account.

Time Position Orientation Groundspeed Altitude Reporting Facility
EDT Latitude Longitude Course Direction KTS MPH feet Rate Location/Type
05:54 42.7672 -73.8061 283° West 164 189 1,200  Level Boston Center
05:56 42.8358 -73.8217 351° North 239 275 3,700 2,640 Climbing Boston Center
05:57 42.8127 -74.1885 281° West  Level FlightAware Approximate
05:57 42.8808 -73.9022 307° West 265 305 7,000  Level Boston Center
05:58 42.8318 -74.3223 281° West  Level FlightAware Approximate
05:58 42.9086 -73.9992 291° West 265 305 9,900  Level Boston Center
05:59 42.8537 -74.4554 283° West  Level FlightAware Approximate
05:59 42.9092 -74.1156 270° West 297 342 12,700  Level Boston Center
06:00 42.8861 -74.5824 283° West  Level FlightAware Approximate
06:00 42.9136 -74.2289 273° West 327 376 14,100  Level Boston Center
06:01 42.9153 -74.3764 271° West 357 411 15,800 1,500 Climbing Boston Center
06:02 42.9172 -74.5069 271° West 374 430 17,200 1,200 Climbing Boston Center
06:03 42.9206 -74.6658 272° West 384 442 18,300 1,560 Climbing Boston Center
06:04 42.9236 -74.8192 272° West 389 448 20,400 2,160 Climbing Boston Center
06:05 42.9269 -74.9553 272° West 384 442 22,700 1,680 Climbing Boston Center
06:06 42.9281 -75.0972 271° West 378 435 23,800 960 Climbing Boston Center
06:07 42.9328 -75.2450 273° West 383 441 24,700 840 Climbing Boston Center
06:08 42.9331 -75.3953 270° West 389 448 25,500 780 Climbing Boston Center
06:09 42.9353 -75.5514 271° West 406 467 26,300 780 Climbing Boston Center
06:10 42.9392 -75.7103 272° West 406 467 27,100 660 Climbing Boston Center
06:11 42.9386 -75.8692 270° West 417 480 27,800 240 Climbing Boston Center
06:13 42.9406 -76.2150 271° West 431 496 28,000 60 Climbing Cleveland Center
06:14 42.9428 -76.3881 271° West 451 519 28,000  Level Cleveland Center
06:15 42.9428 -76.5639 270° West 462 532 28,000  Level Cleveland Center
06:16 42.9411 -76.7031 269° West 462 532 28,000  Level Cleveland Center
06:17 42.9433 -76.8931 271° West 462 532 28,000  Level Cleveland Center
06:18 42.9425 -77.0661 270° West 462 532 28,000 300 Level Cleveland Center
06:19 42.9431 -77.2336 270° West 462 532 28,600 900 Climbing Cleveland Center
06:20 42.9422 -77.4181 270° West 457 526 29,800 660 Climbing Cleveland Center
06:21 42.9422 -77.5825 270° West 452 520 30,000 60 Climbing Cleveland Center
06:22 42.9403 -77.7500 269° West 447 514 30,000  Level Cleveland Center
06:23 42.9403 -77.9200 270° West 447 514 30,000  Level Cleveland Center
06:24 42.9356 -78.0847 268° West 441 507 30,000  Level Cleveland Center
06:25 42.9350 -78.2578 270° West 448 516 30,000  Level Cleveland Center
06:26 42.9319 -78.4253 269° West 448 516 30,000  Level Cleveland Center
06:27 42.9308 -78.5928 270° West 448 516 30,000  Level Cleveland Center
06:28 42.9128 -78.7606 262° West 448 516 30,000  Level Cleveland Center
06:29 42.8903 -78.9228 259° West 448 516 30,000  Level Cleveland Center
06:30 42.8653 -79.0875 258° West 448 516 30,000  Level Cleveland Center
06:31 42.8422 -79.2525 259° West 448 516 30,000  Level Cleveland Center
06:32 42.8192 -79.4197 259° West 448 516 30,000  Level Cleveland Center
06:33 42.7956 -79.5817 259° West 448 516 30,000  Level Cleveland Center
06:34 42.7719 -79.7461 259° West 448 516 30,000  Level Cleveland Center
06:35 42.7500 -79.9158 260° West 448 516 30,000  Level Cleveland Center
06:36 42.7406 -80.0686 265° West 461 531 30,000  Level Cleveland Center
06:37 42.7347 -80.2439 267° West 461 531 30,000  Level Cleveland Center
06:38 42.7269 -80.4222 267° West 461 531 30,000  Level Cleveland Center
06:39 42.7186 -80.5917 266° West 461 531 30,000 -480 Level Cleveland Center
06:40 42.7100 -80.7811 267° West 461 531 29,100 -960 Descending Cleveland Center
06:41 42.6994 -80.9475 265° West 456 525 28,100 -1,020 Descending Cleveland Center
06:42 42.6819 -81.1056 261° West 451 519 27,100 -1,020 Descending Cleveland Center
06:43 42.6625 -81.2692 261° West 441 507 26,100 -1,020 Descending Cleveland Center
06:44 42.6447 -81.4328 262° West 441 507 25,100 -1,080 Descending Cleveland Center
06:45 42.6247 -81.5906 260° West 432 497 24,000 -1,080 Descending Cleveland Center
06:46 42.6086 -81.7453 262° West 426 490 23,000 -900 Descending Cleveland Center
06:47 42.5883 -81.8833 259° West 426 490 22,200 -1,500 Descending Cleveland Center
06:48 42.5697 -82.0378 261° West 426 490 20,100 -2,160 Descending Cleveland Center
06:49 42.5511 -82.1869 260° West 420 483 17,900 -2,400 Descending Cleveland Center
06:50 42.5322 -82.3358 260° West 409 471 15,400 -2,760 Descending Cleveland Center
06:50 42.5250 -82.4117 263° West 398 458 14,000 -3,000 Descending Cleveland Center
06:51 42.5131 -82.4900 258° West 394 453 12,700 -1,320 Descending Cleveland Center
06:52 42.4797 -82.6214 251° West 373 429 12,000 -660 Descending Cleveland Center
06:53 42.4378 -82.7467 246° West 363 418 11,400 -780 Descending Cleveland Center
06:54 42.4042 -82.8664 249° West 372 428 10,500 -1,260 Descending Cleveland Center
06:55 42.4269 -82.9797 285° West 301 346 9,000 -1,800 Descending Cleveland Center
06:56 42.4472 -83.0961 283° West 293 337 7,200 -1,200 Descending Cleveland Center
06:57 42.4350 -83.1828 259° West 253 291 6,600 -840 Descending Cleveland Center
06:58 42.3778 -83.2197 206° Southwest 219 252 5,500 -1,320 Descending Cleveland Center
06:59 42.3269 -83.2569 208° Southwest 177 204 4,000 -1,500 Descending Cleveland Center